sensor_id;sensor_type;location;lat;lon;timestamp;pressure;altitude;pressure_sealevel;temperature;humidity
67803;BME280;54601;51.378;-1.342;2023-01-30T00:02:06;100861.27;;;16.08;31.46
67803;BME280;54601;51.378;-1.342;2023-01-30T00:04:32;100854.41;;;16.02;31.50
67803;BME280;54601;51.378;-1.342;2023-01-30T00:06:57;100851.06;;;16.02;31.49
67803;BME280;54601;51.378;-1.342;2023-01-30T00:09:23;100849.56;;;15.98;31.53
67803;BME280;54601;51.378;-1.342;2023-01-30T00:11:48;100854.49;;;16.22;31.59
67803;BME280;54601;51.378;-1.342;2023-01-30T00:14:13;100863.52;;;15.95;31.59
67803;BME280;54601;51.378;-1.342;2023-01-30T00:16:39;100869.30;;;15.84;31.77
67803;BME280;54601;51.378;-1.342;2023-01-30T00:19:04;100862.91;;;15.96;31.60
67803;BME280;54601;51.378;-1.342;2023-01-30T00:21:29;100866.59;;;15.98;31.59
67803;BME280;54601;51.378;-1.342;2023-01-30T00:23:55;100866.18;;;15.93;31.59
67803;BME280;54601;51.378;-1.342;2023-01-30T00:26:20;100866.17;;;15.92;31.64
67803;BME280;54601;51.378;-1.342;2023-01-30T00:28:46;100863.67;;;15.94;31.57
67803;BME280;54601;51.378;-1.342;2023-01-30T00:31:11;100863.22;;;15.96;31.58
67803;BME280;54601;51.378;-1.342;2023-01-30T00:33:37;100864.65;;;16.42;31.58
67803;BME280;54601;51.378;-1.342;2023-01-30T00:36:03;100862.58;;;15.93;31.63
67803;BME280;54601;51.378;-1.342;2023-01-30T00:38:28;100857.01;;;15.92;31.59
67803;BME280;54601;51.378;-1.342;2023-01-30T00:40:53;100860.23;;;15.89;31.65
67803;BME280;54601;51.378;-1.342;2023-01-30T00:43:19;100858.92;;;15.91;31.67
67803;BME280;54601;51.378;-1.342;2023-01-30T00:45:45;100856.35;;;15.92;31.61
67803;BME280;54601;51.378;-1.342;2023-01-30T00:48:09;100854.25;;;16.13;31.71
67803;BME280;54601;51.378;-1.342;2023-01-30T00:50:35;100859.80;;;15.93;31.59
67803;BME280;54601;51.378;-1.342;2023-01-30T00:53:00;100862.68;;;15.90;31.65
67803;BME280;54601;51.378;-1.342;2023-01-30T00:55:26;100866.47;;;16.20;31.64
67803;BME280;54601;51.378;-1.342;2023-01-30T00:57:51;100862.38;;;15.88;31.70
67803;BME280;54601;51.378;-1.342;2023-01-30T01:00:17;100850.65;;;15.90;31.64
67803;BME280;54601;51.378;-1.342;2023-01-30T01:02:42;100837.94;;;15.79;31.82
67803;BME280;54601;51.378;-1.342;2023-01-30T01:05:08;100846.04;;;15.79;31.86
67803;BME280;54601;51.378;-1.342;2023-01-30T01:07:33;100846.21;;;16.01;31.92
67803;BME280;54601;51.378;-1.342;2023-01-30T01:09:58;100846.19;;;16.14;31.70
67803;BME280;54601;51.378;-1.342;2023-01-30T01:12:24;100849.43;;;15.93;31.60
67803;BME280;54601;51.378;-1.342;2023-01-30T01:14:49;100851.59;;;15.78;31.87
67803;BME280;54601;51.378;-1.342;2023-01-30T01:17:14;100853.33;;;16.15;31.70
67803;BME280;54601;51.378;-1.342;2023-01-30T01:19:40;100849.01;;;15.81;31.87
67803;BME280;54601;51.378;-1.342;2023-01-30T01:22:05;100836.88;;;15.86;31.82
67803;BME280;54601;51.378;-1.342;2023-01-30T01:24:31;100833.88;;;16.08;31.87
67803;BME280;54601;51.378;-1.342;2023-01-30T01:26:57;100832.64;;;15.70;32.01
67803;BME280;54601;51.378;-1.342;2023-01-30T01:29:22;100824.88;;;15.59;31.80
67803;BME280;54601;51.378;-1.342;2023-01-30T01:31:47;100816.19;;;15.86;31.72
67803;BME280;54601;51.378;-1.342;2023-01-30T01:34:12;100822.20;;;15.78;31.91
67803;BME280;54601;51.378;-1.342;2023-01-30T01:36:38;100816.24;;;16.11;31.80
67803;BME280;54601;51.378;-1.342;2023-01-30T01:39:04;100814.18;;;15.78;31.81
67803;BME280;54601;51.378;-1.342;2023-01-30T01:41:29;100814.58;;;16.28;31.79
67803;BME280;54601;51.378;-1.342;2023-01-30T01:44:00;100817.58;;;15.83;31.79
67803;BME280;54601;51.378;-1.342;2023-01-30T01:46:22;100823.85;;;15.82;31.84
67803;BME280;54601;51.378;-1.342;2023-01-30T01:48:49;100817.34;;;15.87;31.75
67803;BME280;54601;51.378;-1.342;2023-01-30T01:51:14;100815.17;;;15.83;31.79
67803;BME280;54601;51.378;-1.342;2023-01-30T01:53:40;100816.58;;;16.02;31.95
67803;BME280;54601;51.378;-1.342;2023-01-30T01:56:03;100812.52;;;15.88;31.77
67803;BME280;54601;51.378;-1.342;2023-01-30T01:58:30;100806.20;;;15.80;31.88
67803;BME280;54601;51.378;-1.342;2023-01-30T02:00:56;100808.67;;;15.76;31.93
67803;BME280;54601;51.378;-1.342;2023-01-30T02:03:21;100802.80;;;15.83;31.86
67803;BME280;54601;51.378;-1.342;2023-01-30T02:05:49;100811.14;;;16.14;31.83
67803;BME280;54601;51.378;-1.342;2023-01-30T02:08:12;100814.73;;;15.82;31.97
67803;BME280;54601;51.378;-1.342;2023-01-30T02:10:40;100810.35;;;15.78;31.98
67803;BME280;54601;51.378;-1.342;2023-01-30T02:12:59;100808.52;;;15.81;32.07
67803;BME280;54601;51.378;-1.342;2023-01-30T02:15:25;100804.95;;;16.07;32.00
67803;BME280;54601;51.378;-1.342;2023-01-30T02:17:50;100804.95;;;15.81;32.03
67803;BME280;54601;51.378;-1.342;2023-01-30T02:20:24;100795.68;;;16.07;32.03
67803;BME280;54601;51.378;-1.342;2023-01-30T02:27:47;100787.05;;;15.83;32.21
67803;BME280;54601;51.378;-1.342;2023-01-30T02:32:29;100783.94;;;15.85;32.18
67803;BME280;54601;51.378;-1.342;2023-01-30T02:34:55;100789.55;;;15.90;32.09
67803;BME280;54601;51.378;-1.342;2023-01-30T02:37:26;100792.13;;;16.16;32.09
67803;BME280;54601;51.378;-1.342;2023-01-30T02:39:47;100793.90;;;16.06;32.31
67803;BME280;54601;51.378;-1.342;2023-01-30T02:42:10;100796.75;;;15.95;32.15
67803;BME280;54601;51.378;-1.342;2023-01-30T02:44:36;100798.57;;;15.96;32.15
67803;BME280;54601;51.378;-1.342;2023-01-30T02:47:00;100797.04;;;15.92;32.15
67803;BME280;54601;51.378;-1.342;2023-01-30T02:49:26;100802.53;;;16.01;32.09
67803;BME280;54601;51.378;-1.342;2023-01-30T02:51:48;100808.12;;;16.21;32.17
67803;BME280;54601;51.378;-1.342;2023-01-30T02:54:13;100806.12;;;15.94;32.23
67803;BME280;54601;51.378;-1.342;2023-01-30T02:56:45;100811.78;;;16.32;32.13
67803;BME280;54601;51.378;-1.342;2023-01-30T02:59:04;100817.76;;;15.99;32.13
67803;BME280;54601;51.378;-1.342;2023-01-30T03:01:43;100813.50;;;16.18;32.34
67803;BME280;54601;51.378;-1.342;2023-01-30T03:04:07;100811.81;;;16.01;32.11
67803;BME280;54601;51.378;-1.342;2023-01-30T03:06:32;100813.52;;;16.17;32.45
67803;BME280;54601;51.378;-1.342;2023-01-30T03:08:51;100812.93;;;16.01;32.24
67803;BME280;54601;51.378;-1.342;2023-01-30T03:11:10;100808.22;;;15.97;32.32
67803;BME280;54601;51.378;-1.342;2023-01-30T03:13:43;100808.63;;;15.97;32.24
67803;BME280;54601;51.378;-1.342;2023-01-30T03:16:04;100805.03;;;16.01;32.18
67803;BME280;54601;51.378;-1.342;2023-01-30T03:18:26;100812.73;;;16.10;32.16
67803;BME280;54601;51.378;-1.342;2023-01-30T03:20:51;100806.64;;;15.95;32.40
67803;BME280;54601;51.378;-1.342;2023-01-30T03:23:17;100811.56;;;15.85;32.57
67803;BME280;54601;51.378;-1.342;2023-01-30T03:25:43;100817.61;;;15.98;32.34
67803;BME280;54601;51.378;-1.342;2023-01-30T03:28:09;100818.39;;;16.26;32.38
67803;BME280;54601;51.378;-1.342;2023-01-30T03:30:33;100820.68;;;15.94;32.53
67803;BME280;54601;51.378;-1.342;2023-01-30T03:32:58;100828.09;;;16.07;32.16
67803;BME280;54601;51.378;-1.342;2023-01-30T03:35:24;100833.28;;;16.18;32.09
67803;BME280;54601;51.378;-1.342;2023-01-30T03:37:49;100834.45;;;16.35;32.27
67803;BME280;54601;51.378;-1.342;2023-01-30T03:40:16;100834.98;;;16.11;32.24
67803;BME280;54601;51.378;-1.342;2023-01-30T03:42:45;100836.61;;;16.12;32.24
67803;BME280;54601;51.378;-1.342;2023-01-30T03:45:06;100833.59;;;15.95;32.11
67803;BME280;54601;51.378;-1.342;2023-01-30T03:47:31;100831.90;;;16.42;32.20
67803;BME280;54601;51.378;-1.342;2023-01-30T03:49:56;100831.47;;;15.99;32.42
67803;BME280;54601;51.378;-1.342;2023-01-30T03:52:22;100829.88;;;15.99;32.45
67803;BME280;54601;51.378;-1.342;2023-01-30T03:54:47;100826.44;;;15.98;32.53
67803;BME280;54601;51.378;-1.342;2023-01-30T03:57:12;100825.00;;;16.14;32.12
67803;BME280;54601;51.378;-1.342;2023-01-30T03:59:38;100824.18;;;15.84;32.38
67803;BME280;54601;51.378;-1.342;2023-01-30T04:02:03;100832.12;;;15.92;32.58
67803;BME280;54601;51.378;-1.342;2023-01-30T04:04:29;100830.09;;;16.40;32.27
67803;BME280;54601;51.378;-1.342;2023-01-30T04:06:54;100837.58;;;16.09;32.27
67803;BME280;54601;51.378;-1.342;2023-01-30T04:09:20;100847.33;;;15.84;32.38
67803;BME280;54601;51.378;-1.342;2023-01-30T04:11:45;100851.29;;;15.96;32.45
67803;BME280;54601;51.378;-1.342;2023-01-30T04:14:10;100845.71;;;16.05;32.33
67803;BME280;54601;51.378;-1.342;2023-01-30T04:16:36;100845.11;;;16.10;32.32
67803;BME280;54601;51.378;-1.342;2023-01-30T04:19:01;100865.68;;;15.72;32.59
67803;BME280;54601;51.378;-1.342;2023-01-30T04:21:26;100870.53;;;16.10;32.33
67803;BME280;54601;51.378;-1.342;2023-01-30T04:23:52;100862.97;;;16.07;32.38
67803;BME280;54601;51.378;-1.342;2023-01-30T04:26:17;100866.91;;;16.07;32.40
67803;BME280;54601;51.378;-1.342;2023-01-30T04:28:43;100875.16;;;16.19;32.22
67803;BME280;54601;51.378;-1.342;2023-01-30T04:31:08;100873.48;;;16.30;32.45
67803;BME280;54601;51.378;-1.342;2023-01-30T04:33:33;100875.21;;;15.98;32.42
67803;BME280;54601;51.378;-1.342;2023-01-30T04:35:59;100876.30;;;16.09;32.36
67803;BME280;54601;51.378;-1.342;2023-01-30T04:38:26;100878.23;;;16.37;32.34
67803;BME280;54601;51.378;-1.342;2023-01-30T04:40:50;100878.38;;;16.12;32.32
67803;BME280;54601;51.378;-1.342;2023-01-30T04:43:15;100879.57;;;15.92;32.27
67803;BME280;54601;51.378;-1.342;2023-01-30T04:45:42;100886.05;;;16.11;32.30
67803;BME280;54601;51.378;-1.342;2023-01-30T04:48:06;100891.45;;;16.06;32.36
67803;BME280;54601;51.378;-1.342;2023-01-30T04:50:31;100897.51;;;16.11;32.30
67803;BME280;54601;51.378;-1.342;2023-01-30T04:52:56;100895.48;;;16.14;32.23
67803;BME280;54601;51.378;-1.342;2023-01-30T04:55:22;100895.35;;;16.13;32.22
67803;BME280;54601;51.378;-1.342;2023-01-30T04:57:47;100901.19;;;16.15;32.16
67803;BME280;54601;51.378;-1.342;2023-01-30T05:00:13;100914.68;;;16.13;32.20
67803;BME280;54601;51.378;-1.342;2023-01-30T05:02:38;100918.35;;;16.19;32.10
67803;BME280;54601;51.378;-1.342;2023-01-30T05:05:04;100920.92;;;16.18;32.16
67803;BME280;54601;51.378;-1.342;2023-01-30T05:07:29;100921.00;;;16.16;32.16
67803;BME280;54601;51.378;-1.342;2023-01-30T05:09:54;100925.05;;;16.43;32.12
67803;BME280;54601;51.378;-1.342;2023-01-30T05:12:19;100928.00;;;16.12;32.16
67803;BME280;54601;51.378;-1.342;2023-01-30T05:14:45;100928.97;;;16.09;32.25
67803;BME280;54601;51.378;-1.342;2023-01-30T05:17:10;100931.12;;;16.02;32.29
67803;BME280;54601;51.378;-1.342;2023-01-30T05:19:36;100930.94;;;16.16;32.12
67803;BME280;54601;51.378;-1.342;2023-01-30T05:22:01;100931.30;;;16.08;32.18
67803;BME280;54601;51.378;-1.342;2023-01-30T05:24:26;100936.03;;;16.12;32.10
67803;BME280;54601;51.378;-1.342;2023-01-30T05:26:52;100935.09;;;16.10;32.10
67803;BME280;54601;51.378;-1.342;2023-01-30T05:29:17;100940.54;;;16.16;32.02
67803;BME280;54601;51.378;-1.342;2023-01-30T05:31:43;100951.42;;;16.43;32.00
67803;BME280;54601;51.378;-1.342;2023-01-30T05:34:10;100950.19;;;15.94;32.04
67803;BME280;54601;51.378;-1.342;2023-01-30T05:36:33;100955.17;;;16.53;31.82
67803;BME280;54601;51.378;-1.342;2023-01-30T05:38:59;100958.08;;;16.14;32.04
67803;BME280;54601;51.378;-1.342;2023-01-30T05:41:24;100961.66;;;16.02;32.14
67803;BME280;54601;51.378;-1.342;2023-01-30T05:43:50;100966.60;;;16.09;32.00
67803;BME280;54601;51.378;-1.342;2023-01-30T05:46:15;100969.92;;;16.12;31.93
67803;BME280;54601;51.378;-1.342;2023-01-30T05:48:40;100974.28;;;16.03;32.01
67803;BME280;54601;51.378;-1.342;2023-01-30T05:51:15;100979.44;;;16.09;31.92
67803;BME280;54601;51.378;-1.342;2023-01-30T05:53:32;100976.82;;;16.12;31.81
67803;BME280;54601;51.378;-1.342;2023-01-30T05:55:58;100978.25;;;16.11;31.81
67803;BME280;54601;51.378;-1.342;2023-01-30T05:58:22;100981.36;;;16.00;31.91
67803;BME280;54601;51.378;-1.342;2023-01-30T06:00:47;100972.64;;;16.06;31.82
67803;BME280;54601;51.378;-1.342;2023-01-30T06:03:13;100971.76;;;16.07;31.72
67803;BME280;54601;51.378;-1.342;2023-01-30T06:05:38;100975.53;;;15.98;31.83
67803;BME280;54601;51.378;-1.342;2023-01-30T06:08:04;100979.73;;;15.78;31.75
67803;BME280;54601;51.378;-1.342;2023-01-30T06:10:29;100984.52;;;15.76;31.73
67803;BME280;54601;51.378;-1.342;2023-01-30T06:12:54;100991.53;;;15.95;31.76
67803;BME280;54601;51.378;-1.342;2023-01-30T06:15:20;100988.20;;;16.08;31.60
67803;BME280;54601;51.378;-1.342;2023-01-30T06:17:45;100996.20;;;15.76;31.63
67803;BME280;54601;51.378;-1.342;2023-01-30T06:20:11;101004.95;;;15.93;31.66
67803;BME280;54601;51.378;-1.342;2023-01-30T06:22:36;101012.92;;;15.93;31.62
67803;BME280;54601;51.378;-1.342;2023-01-30T06:25:01;101022.41;;;15.94;31.55
67803;BME280;54601;51.378;-1.342;2023-01-30T06:27:27;101026.96;;;16.18;31.54
67803;BME280;54601;51.378;-1.342;2023-01-30T06:29:52;101032.10;;;15.75;31.44
67803;BME280;54601;51.378;-1.342;2023-01-30T06:32:17;101034.62;;;15.99;31.39
67803;BME280;54601;51.378;-1.342;2023-01-30T06:34:43;101040.36;;;16.22;31.13
67803;BME280;54601;51.378;-1.342;2023-01-30T06:37:08;101046.17;;;16.16;31.17
67803;BME280;54601;51.378;-1.342;2023-01-30T06:39:34;101052.12;;;16.15;31.12
67803;BME280;54601;51.378;-1.342;2023-01-30T06:41:59;101052.28;;;16.16;31.09
67803;BME280;54601;51.378;-1.342;2023-01-30T06:44:24;101050.70;;;15.97;30.96
67803;BME280;54601;51.378;-1.342;2023-01-30T06:46:51;101050.72;;;16.19;31.00
67803;BME280;54601;51.378;-1.342;2023-01-30T06:49:15;101054.49;;;16.20;30.85
67803;BME280;54601;51.378;-1.342;2023-01-30T06:51:41;101061.16;;;16.12;30.93
67803;BME280;54601;51.378;-1.342;2023-01-30T06:54:06;101073.49;;;16.16;30.84
67803;BME280;54601;51.378;-1.342;2023-01-30T06:56:31;101078.79;;;16.03;30.98
67803;BME280;54601;51.378;-1.342;2023-01-30T06:58:57;101082.51;;;16.07;30.98
67803;BME280;54601;51.378;-1.342;2023-01-30T07:01:22;101088.97;;;15.99;30.96
67803;BME280;54601;51.378;-1.342;2023-01-30T07:03:48;101085.90;;;16.22;30.99
67803;BME280;54601;51.378;-1.342;2023-01-30T07:06:13;101083.13;;;15.92;31.01
67803;BME280;54601;51.378;-1.342;2023-01-30T07:08:38;101088.65;;;15.84;31.04
67803;BME280;54601;51.378;-1.342;2023-01-30T07:11:04;101090.70;;;15.87;30.96
67803;BME280;54601;51.378;-1.342;2023-01-30T07:13:29;101090.65;;;15.84;30.99
67803;BME280;54601;51.378;-1.342;2023-01-30T07:15:55;101094.20;;;15.79;30.95
67803;BME280;54601;51.378;-1.342;2023-01-30T07:18:20;101094.23;;;15.85;30.99
67803;BME280;54601;51.378;-1.342;2023-01-30T07:20:46;101087.53;;;15.93;30.77
67803;BME280;54601;51.378;-1.342;2023-01-30T07:23:11;101096.16;;;15.89;30.79
67803;BME280;54601;51.378;-1.342;2023-01-30T07:25:36;101105.01;;;16.08;30.80
67803;BME280;54601;51.378;-1.342;2023-01-30T07:28:02;101112.47;;;15.82;30.76
67803;BME280;54601;51.378;-1.342;2023-01-30T07:30:29;101110.79;;;16.09;30.73
67803;BME280;54601;51.378;-1.342;2023-01-30T07:32:54;101113.22;;;15.76;30.77
67803;BME280;54601;51.378;-1.342;2023-01-30T07:35:18;101107.83;;;15.80;30.70
67803;BME280;54601;51.378;-1.342;2023-01-30T07:37:44;101096.60;;;15.81;30.68
67803;BME280;54601;51.378;-1.342;2023-01-30T07:40:10;101097.99;;;15.82;30.61
67803;BME280;54601;51.378;-1.342;2023-01-30T07:42:34;101100.68;;;15.67;30.73
67803;BME280;54601;51.378;-1.342;2023-01-30T07:44:59;101102.67;;;15.69;30.68
67803;BME280;54601;51.378;-1.342;2023-01-30T07:47:25;101101.18;;;16.01;30.63
67803;BME280;54601;51.378;-1.342;2023-01-30T07:49:50;101105.67;;;15.70;30.68
67803;BME280;54601;51.378;-1.342;2023-01-30T07:52:15;101114.41;;;15.71;30.67
67803;BME280;54601;51.378;-1.342;2023-01-30T07:54:41;101110.20;;;15.73;30.64
67803;BME280;54601;51.378;-1.342;2023-01-30T07:57:06;101125.17;;;15.70;30.63
67803;BME280;54601;51.378;-1.342;2023-01-30T07:59:32;101132.29;;;16.05;30.54
67803;BME280;54601;51.378;-1.342;2023-01-30T08:01:57;101136.33;;;15.64;30.61
67803;BME280;54601;51.378;-1.342;2023-01-30T08:04:23;101138.87;;;15.68;30.64
67803;BME280;54601;51.378;-1.342;2023-01-30T08:06:48;101137.19;;;15.93;30.57
67803;BME280;54601;51.378;-1.342;2023-01-30T08:09:13;101142.41;;;15.65;30.56
67803;BME280;54601;51.378;-1.342;2023-01-30T08:11:39;101141.06;;;15.67;30.52
67803;BME280;54601;51.378;-1.342;2023-01-30T08:14:04;101144.71;;;15.64;30.58
67803;BME280;54601;51.378;-1.342;2023-01-30T08:16:30;101151.51;;;15.96;30.51
67803;BME280;54601;51.378;-1.342;2023-01-30T08:18:55;101155.57;;;15.74;30.49
67803;BME280;54601;51.378;-1.342;2023-01-30T08:21:21;101152.11;;;15.74;30.42
67803;BME280;54601;51.378;-1.342;2023-01-30T08:23:46;101155.88;;;15.73;30.50
67803;BME280;54601;51.378;-1.342;2023-01-30T08:26:11;101155.99;;;15.79;30.39
67803;BME280;54601;51.378;-1.342;2023-01-30T08:28:38;101158.61;;;15.94;30.45
67803;BME280;54601;51.378;-1.342;2023-01-30T08:31:07;101164.71;;;15.73;30.40
67803;BME280;54601;51.378;-1.342;2023-01-30T08:33:28;101159.21;;;16.10;30.26
67803;BME280;54601;51.378;-1.342;2023-01-30T08:35:54;101152.47;;;15.80;30.33
67803;BME280;54601;51.378;-1.342;2023-01-30T08:38:18;101146.32;;;15.88;30.22
67803;BME280;54601;51.378;-1.342;2023-01-30T08:40:44;101145.85;;;15.71;30.40
67803;BME280;54601;51.378;-1.342;2023-01-30T08:43:09;101148.95;;;16.11;30.28
67803;BME280;54601;51.378;-1.342;2023-01-30T08:45:35;101156.77;;;15.70;30.48
67803;BME280;54601;51.378;-1.342;2023-01-30T08:48:02;101161.87;;;15.96;30.40
67803;BME280;54601;51.378;-1.342;2023-01-30T08:50:26;101160.31;;;15.75;30.40
67803;BME280;54601;51.378;-1.342;2023-01-30T08:52:51;101155.44;;;16.38;30.22
67803;BME280;54601;51.378;-1.342;2023-01-30T08:55:16;101157.99;;;15.84;30.27
67803;BME280;54601;51.378;-1.342;2023-01-30T08:57:42;101164.16;;;15.81;30.30
67803;BME280;54601;51.378;-1.342;2023-01-30T09:00:08;101165.34;;;16.33;30.23
67803;BME280;54601;51.378;-1.342;2023-01-30T09:02:33;101170.38;;;15.81;30.32
67803;BME280;54601;51.378;-1.342;2023-01-30T09:04:58;101161.19;;;16.22;30.13
67803;BME280;54601;51.378;-1.342;2023-01-30T09:07:23;101165.89;;;16.26;29.84
67803;BME280;54601;51.378;-1.342;2023-01-30T09:09:49;101168.72;;;16.12;30.22
67803;BME280;54601;51.378;-1.342;2023-01-30T09:12:14;101165.00;;;16.14;29.96
67803;BME280;54601;51.378;-1.342;2023-01-30T09:14:40;101168.86;;;16.36;30.07
67803;BME280;54601;51.378;-1.342;2023-01-30T09:17:05;101167.18;;;16.10;30.05
67803;BME280;54601;51.378;-1.342;2023-01-30T09:19:30;101174.46;;;15.87;30.25
67803;BME280;54601;51.378;-1.342;2023-01-30T09:21:56;101177.14;;;16.30;29.86
67803;BME280;54601;51.378;-1.342;2023-01-30T09:24:22;101177.01;;;16.94;29.70
67803;BME280;54601;51.378;-1.342;2023-01-30T09:26:47;101182.29;;;16.56;29.62
67803;BME280;54601;51.378;-1.342;2023-01-30T09:29:13;101184.60;;;16.54;29.94
67803;BME280;54601;51.378;-1.342;2023-01-30T09:31:38;101180.36;;;16.51;29.68
67803;BME280;54601;51.378;-1.342;2023-01-30T09:34:03;101181.21;;;16.43;29.82
67803;BME280;54601;51.378;-1.342;2023-01-30T09:36:29;101179.57;;;16.38;29.92
67803;BME280;54601;51.378;-1.342;2023-01-30T09:38:54;101182.71;;;16.61;29.96
67803;BME280;54601;51.378;-1.342;2023-01-30T09:41:34;101189.39;;;16.27;30.09
67803;BME280;54601;51.378;-1.342;2023-01-30T09:44:00;101194.63;;;16.52;29.83
67803;BME280;54601;51.378;-1.342;2023-01-30T09:46:17;101203.32;;;16.30;30.11
67803;BME280;54601;51.378;-1.342;2023-01-30T09:48:40;101205.25;;;16.28;30.17
67803;BME280;54601;51.378;-1.342;2023-01-30T09:51:15;101205.91;;;16.38;30.08
67803;BME280;54601;51.378;-1.342;2023-01-30T09:53:32;101207.41;;;16.63;30.15
67803;BME280;54601;51.378;-1.342;2023-01-30T09:55:52;101203.19;;;16.41;30.12
67803;BME280;54601;51.378;-1.342;2023-01-30T09:58:19;101205.38;;;16.33;30.18
67803;BME280;54601;51.378;-1.342;2023-01-30T10:00:43;101208.60;;;16.25;30.22
67803;BME280;54601;51.378;-1.342;2023-01-30T10:03:12;101217.68;;;16.24;30.54
67803;BME280;54601;51.378;-1.342;2023-01-30T10:05:37;101219.96;;;16.19;32.37
67803;BME280;54601;51.378;-1.342;2023-01-30T10:08:12;101231.52;;;16.47;32.78
67803;BME280;54601;51.378;-1.342;2023-01-30T10:10:35;101236.15;;;16.32;32.86
67803;BME280;54601;51.378;-1.342;2023-01-30T10:12:57;101238.86;;;15.96;32.99
67803;BME280;54601;51.378;-1.342;2023-01-30T10:17:50;101230.50;;;16.65;32.65
67803;BME280;54601;51.378;-1.342;2023-01-30T10:22:40;101225.35;;;16.22;32.70
67803;BME280;54601;51.378;-1.342;2023-01-30T10:25:06;101219.65;;;16.91;32.60
67803;BME280;54601;51.378;-1.342;2023-01-30T10:27:23;101220.61;;;17.07;32.70
67803;BME280;54601;51.378;-1.342;2023-01-30T10:29:50;101233.81;;;16.49;32.83
67803;BME280;54601;51.378;-1.342;2023-01-30T10:32:16;101235.65;;;16.41;32.69
67803;BME280;54601;51.378;-1.342;2023-01-30T10:34:39;101235.28;;;16.90;32.66
67803;BME280;54601;51.378;-1.342;2023-01-30T10:37:06;101232.87;;;16.90;32.58
67803;BME280;54601;51.378;-1.342;2023-01-30T10:39:34;101233.17;;;17.28;32.51
67803;BME280;54601;51.378;-1.342;2023-01-30T10:42:06;101240.78;;;17.18;32.62
67803;BME280;54601;51.378;-1.342;2023-01-30T10:44:21;101243.02;;;16.81;32.84
67803;BME280;54601;51.378;-1.342;2023-01-30T10:46:56;101245.87;;;16.68;33.09
67803;BME280;54601;51.378;-1.342;2023-01-30T10:49:14;101249.73;;;16.81;32.95
67803;BME280;54601;51.378;-1.342;2023-01-30T10:51:44;101250.26;;;16.55;32.91
67803;BME280;54601;51.378;-1.342;2023-01-30T10:54:03;101250.06;;;16.85;32.59
67803;BME280;54601;51.378;-1.342;2023-01-30T10:56:33;101251.64;;;16.78;32.54
67803;BME280;54601;51.378;-1.342;2023-01-30T10:58:55;101251.47;;;16.96;32.33
67803;BME280;54601;51.378;-1.342;2023-01-30T11:01:21;101254.97;;;17.23;32.26
67803;BME280;54601;51.378;-1.342;2023-01-30T11:03:47;101256.39;;;17.17;32.08
67803;BME280;54601;51.378;-1.342;2023-01-30T11:06:11;101257.49;;;17.34;32.05
67803;BME280;54601;51.378;-1.342;2023-01-30T11:08:34;101264.34;;;17.12;32.03
67803;BME280;54601;51.378;-1.342;2023-01-30T11:10:58;101268.33;;;16.95;32.12
67803;BME280;54601;51.378;-1.342;2023-01-30T11:13:27;101277.25;;;17.28;32.05
67803;BME280;54601;51.378;-1.342;2023-01-30T11:15:50;101270.63;;;17.07;31.95
67803;BME280;54601;51.378;-1.342;2023-01-30T11:18:14;101267.44;;;17.50;31.63
67803;BME280;54601;51.378;-1.342;2023-01-30T11:20:40;101259.33;;;17.29;31.58
67803;BME280;54601;51.378;-1.342;2023-01-30T11:23:05;101265.18;;;17.05;31.79
67803;BME280;54601;51.378;-1.342;2023-01-30T11:25:29;101270.49;;;17.01;31.87
67803;BME280;54601;51.378;-1.342;2023-01-30T11:27:59;101278.13;;;16.95;31.98
67803;BME280;54601;51.378;-1.342;2023-01-30T11:30:22;101287.14;;;17.31;31.51
67803;BME280;54601;51.378;-1.342;2023-01-30T11:32:47;101293.03;;;17.26;31.35
67803;BME280;54601;51.378;-1.342;2023-01-30T11:35:19;101288.29;;;16.71;31.79
67803;BME280;54601;51.378;-1.342;2023-01-30T11:37:37;101280.13;;;17.17;31.58
67803;BME280;54601;51.378;-1.342;2023-01-30T11:40:09;101266.65;;;17.12;31.55
67803;BME280;54601;51.378;-1.342;2023-01-30T11:42:30;101261.12;;;17.01;31.65
67803;BME280;54601;51.378;-1.342;2023-01-30T11:44:55;101254.88;;;17.33;31.43
67803;BME280;54601;51.378;-1.342;2023-01-30T11:47:21;101260.01;;;16.81;31.77
67803;BME280;54601;51.378;-1.342;2023-01-30T11:49:45;101260.85;;;17.32;31.26
67803;BME280;54601;51.378;-1.342;2023-01-30T11:52:07;101267.90;;;17.10;31.47
67803;BME280;54601;51.378;-1.342;2023-01-30T11:54:34;101269.32;;;17.47;31.00
67803;BME280;54601;51.378;-1.342;2023-01-30T11:57:00;101273.28;;;16.95;31.51
67803;BME280;54601;51.378;-1.342;2023-01-30T11:59:25;101279.10;;;17.39;31.48
67803;BME280;54601;51.378;-1.342;2023-01-30T12:01:49;101289.57;;;17.11;31.71
67803;BME280;54601;51.378;-1.342;2023-01-30T12:04:14;101298.42;;;16.96;31.39
67803;BME280;54601;51.378;-1.342;2023-01-30T12:06:41;101292.64;;;17.00;31.29
67803;BME280;54601;51.378;-1.342;2023-01-30T12:09:05;101296.65;;;17.10;31.11
67803;BME280;54601;51.378;-1.342;2023-01-30T12:11:40;101286.67;;;17.57;30.79
67803;BME280;54601;51.378;-1.342;2023-01-30T12:14:07;101287.50;;;17.29;30.80
67803;BME280;54601;51.378;-1.342;2023-01-30T12:16:22;101285.11;;;17.15;30.97
67803;BME280;54601;51.378;-1.342;2023-01-30T12:18:53;101287.15;;;17.05;31.26
67803;BME280;54601;51.378;-1.342;2023-01-30T12:21:19;101283.67;;;17.56;30.67
67803;BME280;54601;51.378;-1.342;2023-01-30T12:23:39;101276.81;;;17.56;30.71
67803;BME280;54601;51.378;-1.342;2023-01-30T12:26:06;101273.69;;;17.42;30.58
67803;BME280;54601;51.378;-1.342;2023-01-30T12:28:34;101279.17;;;17.46;30.73
67803;BME280;54601;51.378;-1.342;2023-01-30T12:30:55;101280.89;;;17.14;30.87
67803;BME280;54601;51.378;-1.342;2023-01-30T12:33:17;101283.57;;;17.27;30.66
67803;BME280;54601;51.378;-1.342;2023-01-30T12:35:50;101285.58;;;17.37;30.56
67803;BME280;54601;51.378;-1.342;2023-01-30T12:38:17;101290.78;;;17.33;30.62
67803;BME280;54601;51.378;-1.342;2023-01-30T12:40:41;101290.14;;;17.71;30.41
67803;BME280;54601;51.378;-1.342;2023-01-30T12:45:26;101281.14;;;17.39;30.46